Time;durP1;ratioP1;P1;durP2;ratioP2;P2;SDS_P1;SDS_P2;PMS_P1;PMS_P2;Temp;Humidity;BMP_temperature;BMP_pressure;BME280_temperature;BME280_humidity;BME280_pressure;Samples;Min_cycle;Max_cycle;Signal;HPM_P1;HPM_P2
2023/06/19 00:01:22;;;;;;;10.23;9.23;;;;;;;;;;6191035;23;20459;-84
2023/06/19 00:03:48;;;;;;;10.73;9.43;;;;;;;;;;6190414;23;20017;-84
2023/06/19 00:06:14;;;;;;;12.55;9.27;;;;;;;;;;6189993;23;20013;-84
2023/06/19 00:08:42;;;;;;;9.63;8.60;;;;;;;;;;6189936;23;20013;-84
2023/06/19 00:11:08;;;;;;;9.93;8.85;;;;;;;;;;6191041;23;20017;-83
2023/06/19 00:13:34;;;;;;;10.65;9.15;;;;;;;;;;6190428;23;20013;-84
2023/06/19 00:16:01;;;;;;;9.57;8.55;;;;;;;;;;6213639;23;20017;-84
2023/06/19 00:18:27;;;;;;;10.57;9.25;;;;;;;;;;6187923;23;20425;-84
2023/06/19 00:20:55;;;;;;;9.45;8.32;;;;;;;;;;6187192;23;20021;-84
2023/06/19 00:23:22;;;;;;;9.50;8.55;;;;;;;;;;6209870;23;20027;-84
2023/06/19 00:25:48;;;;;;;10.63;9.13;;;;;;;;;;6183459;23;20111;-84
2023/06/19 00:28:14;;;;;;;9.18;8.15;;;;;;;;;;6186908;23;20028;-83
2023/06/19 00:30:44;;;;;;;9.52;8.20;;;;;;;;;;6157287;23;20459;-84
2023/06/19 00:33:11;;;;;;;10.15;9.15;;;;;;;;;;6185133;23;20387;-84
2023/06/19 00:35:37;;;;;;;9.23;8.10;;;;;;;;;;6184949;23;20020;-84
2023/06/19 00:38:03;;;;;;;9.63;8.68;;;;;;;;;;6183142;23;20025;-84
2023/06/19 00:40:33;;;;;;;11.38;8.65;;;;;;;;;;6183619;23;20102;-83
2023/06/19 00:42:59;;;;;;;9.10;8.20;;;;;;;;;;6184863;23;20021;-84
2023/06/19 00:45:26;;;;;;;10.98;8.57;;;;;;;;;;6185028;23;20024;-84
2023/06/19 00:47:53;;;;;;;9.30;8.40;;;;;;;;;;6184031;23;20016;-84
2023/06/19 00:50:19;;;;;;;10.82;7.93;;;;;;;;;;6207874;23;20500;-84
2023/06/19 00:52:45;;;;;;;9.18;8.00;;;;;;;;;;6185088;23;20522;-83
2023/06/19 00:55:11;;;;;;;8.98;8.07;;;;;;;;;;6186230;23;20013;-84
2023/06/19 00:57:39;;;;;;;9.55;8.48;;;;;;;;;;6160693;23;20061;-84
2023/06/19 01:00:08;;;;;;;9.00;8.10;;;;;;;;;;6185877;23;20013;-83
2023/06/19 01:02:34;;;;;;;10.38;8.40;;;;;;;;;;6185372;23;20100;-83
2023/06/19 01:05:00;;;;;;;8.23;7.40;;;;;;;;;;6186180;23;20017;-84
2023/06/19 01:07:46;;;;;;;9.05;8.15;;;;;;;;;;6186876;23;20017;-83
2023/06/19 01:10:15;;;;;;;8.20;7.40;;;;;;;;;;6184872;23;20020;-83
2023/06/19 01:12:48;;;;;;;10.43;8.35;;;;;;;;;;6185515;23;20417;-84
2023/06/19 01:15:15;;;;;;;9.20;8.32;;;;;;;;;;6186251;23;20361;-83
2023/06/19 01:17:41;;;;;;;9.77;8.40;;;;;;;;;;6182327;23;20079;-83
2023/06/19 01:20:10;;;;;;;9.25;8.25;;;;;;;;;;6182712;23;20028;-84
2023/06/19 01:22:37;;;;;;;11.45;8.10;;;;;;;;;;6185189;23;20321;-84
2023/06/19 01:25:06;;;;;;;10.40;9.27;;;;;;;;;;6184781;23;20017;-84
2023/06/19 01:27:33;;;;;;;10.60;9.50;;;;;;;;;;6158505;23;20096;-84
2023/06/19 01:30:00;;;;;;;10.55;9.35;;;;;;;;;;6165402;23;20028;-84
2023/06/19 01:32:26;;;;;;;11.05;9.27;;;;;;;;;;6194296;23;20021;-84
2023/06/19 01:34:55;;;;;;;10.65;9.55;;;;;;;;;;6190076;23;20044;-84
2023/06/19 01:37:21;;;;;;;10.75;9.65;;;;;;;;;;6212325;23;20025;-83
2023/06/19 01:39:47;;;;;;;10.77;9.68;;;;;;;;;;6213387;23;20013;-84
2023/06/19 01:42:14;;;;;;;10.40;9.23;;;;;;;;;;6187091;23;20048;-83
2023/06/19 01:44:40;;;;;;;10.70;9.60;;;;;;;;;;6213422;23;20372;-84
2023/06/19 01:47:10;;;;;;;11.13;9.77;;;;;;;;;;6187897;23;20024;-83
2023/06/19 01:49:37;;;;;;;10.70;9.43;;;;;;;;;;6210397;23;20021;-84
2023/06/19 01:52:03;;;;;;;11.32;9.38;;;;;;;;;;6209565;23;20128;-83
2023/06/19 01:54:29;;;;;;;11.20;9.70;;;;;;;;;;6210494;23;20021;-84
2023/06/19 01:56:55;;;;;;;11.38;10.18;;;;;;;;;;6190515;23;20021;-83
2023/06/19 01:59:21;;;;;;;10.70;9.55;;;;;;;;;;6188507;23;20017;-83
2023/06/19 02:01:47;;;;;;;11.85;10.60;;;;;;;;;;6210875;23;20056;-83
2023/06/19 02:04:13;;;;;;;13.20;11.10;;;;;;;;;;6214515;23;20444;-84
2023/06/19 02:06:39;;;;;;;13.05;10.73;;;;;;;;;;6189852;23;20024;-84
2023/06/19 02:09:05;;;;;;;11.65;10.45;;;;;;;;;;6212848;23;20052;-83
2023/06/19 02:11:31;;;;;;;10.82;9.50;;;;;;;;;;6191213;23;20069;-83
2023/06/19 02:13:57;;;;;;;11.52;10.27;;;;;;;;;;6188960;23;20077;-83
2023/06/19 02:16:23;;;;;;;11.02;9.93;;;;;;;;;;6209720;23;20449;-84
2023/06/19 02:18:49;;;;;;;10.95;9.77;;;;;;;;;;6208895;23;20017;-84
2023/06/19 02:21:15;;;;;;;11.02;9.75;;;;;;;;;;6187053;23;20025;-84
2023/06/19 02:23:41;;;;;;;11.27;9.35;;;;;;;;;;6189254;23;20021;-84
2023/06/19 02:26:07;;;;;;;10.73;9.63;;;;;;;;;;6190146;23;20041;-84
2023/06/19 02:28:34;;;;;;;12.85;9.57;;;;;;;;;;6189724;23;20329;-84
2023/06/19 02:31:00;;;;;;;11.10;10.00;;;;;;;;;;6211332;23;20024;-83
2023/06/19 02:33:26;;;;;;;12.95;10.10;;;;;;;;;;6187748;23;20032;-84
2023/06/19 02:35:52;;;;;;;10.85;8.98;;;;;;;;;;6187987;23;20024;-83
2023/06/19 02:38:21;;;;;;;11.57;10.25;;;;;;;;;;6210687;23;20083;-84
2023/06/19 02:40:47;;;;;;;10.48;9.38;;;;;;;;;;6188197;23;20032;-83
2023/06/19 02:43:13;;;;;;;12.48;9.45;;;;;;;;;;6212181;23;20023;-84
2023/06/19 02:45:39;;;;;;;10.43;9.40;;;;;;;;;;6187460;23;20077;-83
2023/06/19 02:48:05;;;;;;;10.65;9.55;;;;;;;;;;6187949;23;20013;-83
2023/06/19 02:50:31;;;;;;;10.07;9.05;;;;;;;;;;6189182;23;20460;-83
2023/06/19 02:52:57;;;;;;;9.70;8.65;;;;;;;;;;6188579;23;20025;-84
2023/06/19 02:55:23;;;;;;;12.15;9.52;;;;;;;;;;6189531;23;20053;-84
2023/06/19 02:57:49;;;;;;;9.88;8.82;;;;;;;;;;6212517;23;20099;-83
2023/06/19 03:00:15;;;;;;;10.95;8.45;;;;;;;;;;6188932;23;20368;-84
2023/06/19 03:02:43;;;;;;;9.52;8.52;;;;;;;;;;6189974;23;20024;-83
2023/06/19 03:05:10;;;;;;;10.32;8.55;;;;;;;;;;6190003;23;20444;-83
2023/06/19 03:07:36;;;;;;;9.50;8.05;;;;;;;;;;6215377;23;20021;-84
2023/06/19 03:10:02;;;;;;;9.38;7.97;;;;;;;;;;6164875;23;20013;-83
2023/06/19 03:12:28;;;;;;;9.73;8.05;;;;;;;;;;6192017;23;20340;-84
2023/06/19 03:14:54;;;;;;;9.63;8.02;;;;;;;;;;6189016;23;20029;-84
2023/06/19 03:17:20;;;;;;;9.35;8.15;;;;;;;;;;6188747;23;20317;-84
2023/06/19 03:19:46;;;;;;;9.30;7.97;;;;;;;;;;6163375;23;20558;-84
2023/06/19 03:22:12;;;;;;;9.60;8.60;;;;;;;;;;6187768;23;20021;-84
2023/06/19 03:24:38;;;;;;;10.13;8.25;;;;;;;;;;6189930;23;20095;-84
2023/06/19 03:27:04;;;;;;;8.82;7.93;;;;;;;;;;6187075;23;20352;-84
2023/06/19 03:29:30;;;;;;;9.85;8.43;;;;;;;;;;6189805;23;20344;-84
2023/06/19 03:31:56;;;;;;;10.43;8.55;;;;;;;;;;6193287;23;20460;-83
2023/06/19 03:34:22;;;;;;;10.25;8.18;;;;;;;;;;6197544;23;20041;-84
2023/06/19 03:36:48;;;;;;;10.07;8.50;;;;;;;;;;6164774;23;20034;-84
2023/06/19 03:39:14;;;;;;;9.35;7.70;;;;;;;;;;6163941;23;20161;-84
2023/06/19 03:41:41;;;;;;;8.65;7.78;;;;;;;;;;6212425;23;20159;-84
2023/06/19 03:44:07;;;;;;;10.13;8.32;;;;;;;;;;6163036;23;20017;-84
2023/06/19 03:46:33;;;;;;;9.20;8.05;;;;;;;;;;6213440;23;20017;-84
2023/06/19 03:48:59;;;;;;;9.48;8.48;;;;;;;;;;6186964;23;20013;-84
2023/06/19 03:51:25;;;;;;;11.32;8.20;;;;;;;;;;6188222;23;20017;-84
2023/06/19 03:53:51;;;;;;;10.38;8.07;;;;;;;;;;6189388;23;20043;-84
2023/06/19 03:56:17;;;;;;;8.88;7.65;;;;;;;;;;6214997;23;20049;-84
2023/06/19 03:58:43;;;;;;;10.32;8.02;;;;;;;;;;6211951;23;20028;-84
2023/06/19 04:01:09;;;;;;;9.15;7.68;;;;;;;;;;6190270;23;20052;-84
2023/06/19 04:03:35;;;;;;;8.90;7.80;;;;;;;;;;6212997;23;20317;-84
2023/06/19 04:06:01;;;;;;;8.93;7.78;;;;;;;;;;6188277;23;20013;-84
2023/06/19 04:08:27;;;;;;;10.25;7.90;;;;;;;;;;6189221;23;20021;-84
2023/06/19 04:10:53;;;;;;;9.95;8.20;;;;;;;;;;6212329;23;20021;-84
2023/06/19 04:13:19;;;;;;;9.55;7.55;;;;;;;;;;6187582;23;20071;-84
2023/06/19 04:15:45;;;;;;;10.80;7.80;;;;;;;;;;6163347;23;20017;-84
2023/06/19 04:18:11;;;;;;;9.48;8.02;;;;;;;;;;6164020;23;20472;-84
2023/06/19 04:20:37;;;;;;;8.80;7.70;;;;;;;;;;6190771;23;20017;-84
2023/06/19 04:23:03;;;;;;;8.80;7.90;;;;;;;;;;6190874;23;20027;-84
2023/06/19 04:25:30;;;;;;;8.30;7.05;;;;;;;;;;6212625;23;20017;-84
2023/06/19 04:27:56;;;;;;;9.23;6.75;;;;;;;;;;6211901;23;20347;-84
2023/06/19 04:30:22;;;;;;;6.85;5.78;;;;;;;;;;6188101;23;20075;-84
2023/06/19 04:32:48;;;;;;;8.52;5.70;;;;;;;;;;6213026;23;20099;-84
2023/06/19 04:35:14;;;;;;;7.15;5.53;;;;;;;;;;6212211;23;20025;-84
2023/06/19 04:37:40;;;;;;;6.03;5.15;;;;;;;;;;6187418;23;20089;-84
2023/06/19 04:40:09;;;;;;;6.75;4.90;;;;;;;;;;6212676;23;20040;-84
2023/06/19 04:42:35;;;;;;;6.32;4.57;;;;;;;;;;6210144;23;20352;-84
2023/06/19 04:45:01;;;;;;;7.35;4.30;;;;;;;;;;6187355;23;20474;-84
2023/06/19 04:47:27;;;;;;;6.97;4.30;;;;;;;;;;6189571;23;20392;-84
2023/06/19 04:49:53;;;;;;;4.88;3.83;;;;;;;;;;6162721;23;20021;-84
2023/06/19 04:52:19;;;;;;;4.50;3.80;;;;;;;;;;6160447;23;20017;-84
2023/06/19 04:54:48;;;;;;;4.45;3.88;;;;;;;;;;6184424;23;20060;-83
2023/06/19 04:57:14;;;;;;;4.72;3.63;;;;;;;;;;6158909;23;20177;-84
2023/06/19 04:59:40;;;;;;;4.88;3.97;;;;;;;;;;6184759;23;20096;-84
2023/06/19 05:02:07;;;;;;;5.93;3.63;;;;;;;;;;6159895;23;20017;-84
2023/06/19 05:04:33;;;;;;;4.88;4.10;;;;;;;;;;6186352;23;20017;-84
2023/06/19 05:06:59;;;;;;;5.53;4.15;;;;;;;;;;6186107;23;20100;-84
2023/06/19 05:09:25;;;;;;;6.82;4.00;;;;;;;;;;6210401;23;20322;-84
2023/06/19 05:11:51;;;;;;;5.22;4.07;;;;;;;;;;6189095;23;20483;-84
2023/06/19 05:14:17;;;;;;;5.40;4.30;;;;;;;;;;6158606;23;20451;-84
2023/06/19 05:16:44;;;;;;;6.43;4.32;;;;;;;;;;6181795;23;20024;-83
2023/06/19 05:19:10;;;;;;;6.32;4.00;;;;;;;;;;6185464;23;20020;-84
2023/06/19 05:21:36;;;;;;;6.13;4.85;;;;;;;;;;6186853;23;20021;-84
2023/06/19 05:24:02;;;;;;;5.55;4.57;;;;;;;;;;6159836;23;20021;-84
2023/06/19 05:26:28;;;;;;;5.00;4.30;;;;;;;;;;6160565;23;20021;-84
2023/06/19 05:28:54;;;;;;;7.00;4.63;;;;;;;;;;6187804;23;20017;-84
2023/06/19 05:31:20;;;;;;;6.32;4.63;;;;;;;;;;6182115;23;20016;-84
2023/06/19 05:33:47;;;;;;;5.70;5.10;;;;;;;;;;6210676;23;20025;-84
2023/06/19 05:36:16;;;;;;;6.70;4.85;;;;;;;;;;6194556;23;20021;-84
2023/06/19 05:38:42;;;;;;;7.72;5.18;;;;;;;;;;6186604;23;20417;-84
2023/06/19 05:41:08;;;;;;;7.15;5.63;;;;;;;;;;6188157;23;20020;-84
2023/06/19 05:43:35;;;;;;;7.45;6.15;;;;;;;;;;6186053;23;20025;-85
2023/06/19 05:46:02;;;;;;;7.70;6.88;;;;;;;;;;6208255;23;20013;-85
2023/06/19 05:48:28;;;;;;;7.95;6.28;;;;;;;;;;6210502;23;20021;-85
2023/06/19 05:50:54;;;;;;;7.45;6.53;;;;;;;;;;6184751;23;20026;-84
2023/06/19 05:53:20;;;;;;;8.68;6.80;;;;;;;;;;6186587;23;20020;-85
2023/06/19 05:55:46;;;;;;;10.70;8.05;;;;;;;;;;6158765;23;20040;-84
2023/06/19 05:58:12;;;;;;;9.20;7.18;;;;;;;;;;6184966;23;20021;-84
2023/06/19 06:00:38;;;;;;;14.07;10.38;;;;;;;;;;6209192;23;20024;-84
2023/06/19 06:03:05;;;;;;;14.20;10.60;;;;;;;;;;6184942;23;20021;-86
2023/06/19 06:05:31;;;;;;;16.35;12.10;;;;;;;;;;6183760;23;20017;-84
2023/06/19 06:07:57;;;;;;;17.52;13.93;;;;;;;;;;6189208;23;20444;-84
2023/06/19 06:10:25;;;;;;;15.98;12.40;;;;;;;;;;6189990;23;20117;-84
2023/06/19 06:12:51;;;;;;;17.27;14.20;;;;;;;;;;6161936;23;20024;-84
2023/06/19 06:15:17;;;;;;;18.48;14.82;;;;;;;;;;6188626;23;20028;-84
2023/06/19 06:17:43;;;;;;;23.08;18.42;;;;;;;;;;6162218;23;20024;-84
2023/06/19 06:20:11;;;;;;;26.23;21.00;;;;;;;;;;6187492;23;20503;-84
2023/06/19 06:22:38;;;;;;;25.60;21.92;;;;;;;;;;6212243;23;20043;-84
2023/06/19 06:25:04;;;;;;;30.35;25.30;;;;;;;;;;6187638;23;20285;-84
2023/06/19 06:27:30;;;;;;;30.05;25.23;;;;;;;;;;6186823;23;20340;-85
2023/06/19 06:29:56;;;;;;;30.42;23.48;;;;;;;;;;6161212;23;20017;-84
2023/06/19 06:32:22;;;;;;;29.27;22.80;;;;;;;;;;6210135;23;20021;-84
2023/06/19 06:34:48;;;;;;;26.58;23.55;;;;;;;;;;6185887;23;20025;-83
2023/06/19 06:37:17;;;;;;;30.98;24.15;;;;;;;;;;6209997;23;20025;-84
2023/06/19 06:39:43;;;;;;;29.70;23.80;;;;;;;;;;6186526;23;20025;-85
2023/06/19 06:42:09;;;;;;;31.00;24.67;;;;;;;;;;6185684;23;20340;-85
2023/06/19 06:44:35;;;;;;;34.03;25.25;;;;;;;;;;6186111;23;20024;-85
2023/06/19 06:47:01;;;;;;;29.38;24.95;;;;;;;;;;6184881;23;20017;-84
2023/06/19 06:49:27;;;;;;;29.80;24.20;;;;;;;;;;6185642;23;20031;-84
2023/06/19 06:51:53;;;;;;;32.50;26.40;;;;;;;;;;6186589;23;20506;-85
2023/06/19 06:54:20;;;;;;;30.58;26.02;;;;;;;;;;6158351;23;20021;-85
2023/06/19 06:56:47;;;;;;;30.75;23.85;;;;;;;;;;6182869;23;20072;-84
2023/06/19 06:59:16;;;;;;;35.38;25.98;;;;;;;;;;6182917;23;20113;-85
2023/06/19 07:01:42;;;;;;;32.42;26.35;;;;;;;;;;6158285;23;20053;-84
2023/06/19 07:04:09;;;;;;;29.88;24.17;;;;;;;;;;6182753;23;20573;-85
2023/06/19 07:06:35;;;;;;;33.28;26.02;;;;;;;;;;6157678;23;20025;-86
2023/06/19 07:09:01;;;;;;;28.42;23.83;;;;;;;;;;6158418;23;20071;-86
2023/06/19 07:11:27;;;;;;;30.95;23.85;;;;;;;;;;6211231;23;20111;-85
2023/06/19 07:13:53;;;;;;;30.50;23.85;;;;;;;;;;6186904;23;20017;-86
2023/06/19 07:16:19;;;;;;;37.53;25.58;;;;;;;;;;6134302;23;20104;-87
2023/06/19 07:18:45;;;;;;;33.42;24.70;;;;;;;;;;6185163;23;20025;-86
2023/06/19 07:21:12;;;;;;;33.42;25.58;;;;;;;;;;6186626;23;20017;-86
2023/06/19 07:23:40;;;;;;;33.08;24.88;;;;;;;;;;6183980;23;20016;-86
2023/06/19 07:26:06;;;;;;;35.20;23.48;;;;;;;;;;6185036;23;20019;-85
2023/06/19 07:28:32;;;;;;;33.78;23.58;;;;;;;;;;6209958;23;20444;-85
2023/06/19 07:30:58;;;;;;;31.13;21.67;;;;;;;;;;6185107;23;20017;-88
2023/06/19 07:33:24;;;;;;;29.48;21.83;;;;;;;;;;6185847;23;20021;-85
2023/06/19 07:35:50;;;;;;;28.08;20.65;;;;;;;;;;6160804;23;20020;-89
2023/06/19 07:38:19;;;;;;;32.78;20.88;;;;;;;;;;6200914;23;20017;-88
2023/06/19 07:40:45;;;;;;;29.45;20.27;;;;;;;;;;6195561;23;20285;-87
2023/06/19 07:43:11;;;;;;;29.02;20.80;;;;;;;;;;6186397;23;20125;-86
2023/06/19 07:45:37;;;;;;;30.80;20.15;;;;;;;;;;6159339;23;20019;-85
2023/06/19 07:48:04;;;;;;;33.97;21.20;;;;;;;;;;6184512;23;20021;-85
2023/06/19 07:50:30;;;;;;;32.22;21.52;;;;;;;;;;6161338;23;20259;-85
2023/06/19 07:52:56;;;;;;;32.88;22.20;;;;;;;;;;6185249;23;20017;-86
2023/06/19 07:55:22;;;;;;;34.08;22.10;;;;;;;;;;6210445;23;20028;-85
2023/06/19 07:57:48;;;;;;;33.60;21.77;;;;;;;;;;6185303;23;20021;-84
2023/06/19 08:00:15;;;;;;;32.65;21.85;;;;;;;;;;6161492;23;20329;-83
2023/06/19 08:02:41;;;;;;;31.48;21.05;;;;;;;;;;6208867;23;20444;-85
2023/06/19 08:05:09;;;;;;;32.40;21.63;;;;;;;;;;6209471;23;20064;-86
2023/06/19 08:07:36;;;;;;;33.92;22.40;;;;;;;;;;6184701;23;20017;-85
2023/06/19 08:10:03;;;;;;;33.15;21.55;;;;;;;;;;6207762;23;20032;-86
2023/06/19 08:12:30;;;;;;;31.70;21.17;;;;;;;;;;6206801;23;20020;-86
2023/06/19 08:14:56;;;;;;;30.40;20.25;;;;;;;;;;6185060;23;20086;-86
2023/06/19 08:17:22;;;;;;;28.70;18.20;;;;;;;;;;6184382;23;20024;-87
2023/06/19 08:19:48;;;;;;;25.88;17.73;;;;;;;;;;6184168;23;20044;-87
2023/06/19 08:22:14;;;;;;;23.70;16.42;;;;;;;;;;6185615;23;20024;-85
2023/06/19 08:24:40;;;;;;;22.67;15.05;;;;;;;;;;6183408;23;20091;-86
2023/06/19 08:27:07;;;;;;;22.17;15.02;;;;;;;;;;6157280;23;20092;-86
2023/06/19 08:29:33;;;;;;;19.23;13.57;;;;;;;;;;6183878;23;20452;-86
2023/06/19 08:32:02;;;;;;;19.85;14.50;;;;;;;;;;6157883;23;20439;-85
2023/06/19 08:34:28;;;;;;;19.30;13.80;;;;;;;;;;6184846;23;20067;-85
2023/06/19 08:36:54;;;;;;;19.10;13.23;;;;;;;;;;6159829;23;20021;-85
2023/06/19 08:39:22;;;;;;;19.08;14.43;;;;;;;;;;6160882;23;20017;-86
2023/06/19 08:41:48;;;;;;;21.65;15.15;;;;;;;;;;6187543;23;20039;-87
2023/06/19 08:44:14;;;;;;;21.00;15.02;;;;;;;;;;6184512;23;20020;-86
2023/06/19 08:46:41;;;;;;;21.17;14.85;;;;;;;;;;6185977;23;20017;-86
2023/06/19 08:49:10;;;;;;;22.77;15.70;;;;;;;;;;6189521;23;20083;-86
2023/06/19 08:51:36;;;;;;;23.60;15.30;;;;;;;;;;6189834;23;20056;-86
2023/06/19 08:54:04;;;;;;;21.73;15.65;;;;;;;;;;6187868;23;20439;-85
2023/06/19 08:56:39;;;;;;;20.27;15.40;;;;;;;;;;6186532;23;20459;-86
2023/06/19 08:59:12;;;;;;;22.95;15.95;;;;;;;;;;6188884;23;20498;-85
2023/06/19 09:01:39;;;;;;;24.77;16.50;;;;;;;;;;6212070;23;20067;-85
2023/06/19 09:04:15;;;;;;;20.38;14.70;;;;;;;;;;6166498;23;20025;-85
2023/06/19 09:06:48;;;;;;;20.45;15.27;;;;;;;;;;6160947;23;20151;-84
2023/06/19 09:09:15;;;;;;;19.73;14.80;;;;;;;;;;6161828;23;20040;-85
2023/06/19 09:11:44;;;;;;;21.17;13.68;;;;;;;;;;6164392;23;20118;-85
2023/06/19 09:14:11;;;;;;;18.02;13.55;;;;;;;;;;6165075;23;20072;-85
2023/06/19 09:16:38;;;;;;;16.63;13.70;;;;;;;;;;6187479;23;20013;-85
2023/06/19 09:19:04;;;;;;;17.05;12.40;;;;;;;;;;6187780;23;20318;-84
2023/06/19 09:21:30;;;;;;;16.30;12.75;;;;;;;;;;6188703;23;20140;-84
2023/06/19 09:24:02;;;;;;;21.25;13.93;;;;;;;;;;6188887;23;20027;-86
2023/06/19 09:26:28;;;;;;;16.05;12.55;;;;;;;;;;6186838;23;20027;-85
2023/06/19 09:28:55;;;;;;;16.23;12.15;;;;;;;;;;6188293;23;20313;-87
2023/06/19 09:31:21;;;;;;;17.70;14.35;;;;;;;;;;6211975;23;20035;-86
2023/06/19 09:33:47;;;;;;;18.67;13.05;;;;;;;;;;6211491;23;20017;-85
2023/06/19 09:36:16;;;;;;;19.80;13.15;;;;;;;;;;6214826;23;20340;-86
2023/06/19 09:38:42;;;;;;;17.48;13.05;;;;;;;;;;6213513;23;20107;-86
2023/06/19 09:41:08;;;;;;;19.38;13.70;;;;;;;;;;6224208;23;20048;-86
2023/06/19 09:43:44;;;;;;;18.05;13.43;;;;;;;;;;6231450;23;20024;-85
2023/06/19 09:46:11;;;;;;;21.10;13.43;;;;;;;;;;6226751;23;20017;-86
2023/06/19 09:48:42;;;;;;;19.40;12.88;;;;;;;;;;6160401;23;20021;-87
2023/06/19 09:51:17;;;;;;;17.05;12.60;;;;;;;;;;6185616;23;20436;-85
2023/06/19 09:53:47;;;;;;;16.10;11.85;;;;;;;;;;6186263;23;20431;-87
2023/06/19 09:56:14;;;;;;;19.08;12.88;;;;;;;;;;6159264;23;20380;-87
2023/06/19 09:58:41;;;;;;;19.52;13.02;;;;;;;;;;6185984;23;20352;-85
2023/06/19 10:01:07;;;;;;;18.70;13.02;;;;;;;;;;6185806;23;20025;-87
2023/06/19 10:03:34;;;;;;;18.83;13.63;;;;;;;;;;6183925;23;20025;-85
2023/06/19 10:06:02;;;;;;;17.13;13.57;;;;;;;;;;6186008;23;20071;-85
2023/06/19 10:08:32;;;;;;;17.35;12.90;;;;;;;;;;6159184;23;20017;-85
2023/06/19 10:10:58;;;;;;;15.88;13.20;;;;;;;;;;6209304;23;20017;-86
2023/06/19 10:13:31;;;;;;;20.48;13.95;;;;;;;;;;6207987;23;20113;-85
2023/06/19 10:15:57;;;;;;;21.80;14.13;;;;;;;;;;6208987;23;20357;-85
2023/06/19 10:18:25;;;;;;;20.98;14.95;;;;;;;;;;6185501;23;20059;-85
2023/06/19 10:20:51;;;;;;;19.77;14.35;;;;;;;;;;6185946;23;20009;-85
2023/06/19 10:23:18;;;;;;;21.88;15.10;;;;;;;;;;6184475;23;20013;-85
2023/06/19 10:25:48;;;;;;;20.52;14.57;;;;;;;;;;6185687;23;20047;-85
2023/06/19 10:28:18;;;;;;;20.83;15.35;;;;;;;;;;6184974;23;20070;-86
2023/06/19 10:30:44;;;;;;;19.00;14.98;;;;;;;;;;6207195;23;20119;-85
2023/06/19 10:33:10;;;;;;;20.65;14.98;;;;;;;;;;6158832;23;20024;-84
2023/06/19 10:35:40;;;;;;;18.25;12.88;;;;;;;;;;6185101;23;20021;-84
2023/06/19 10:38:06;;;;;;;16.45;12.98;;;;;;;;;;6210038;23;20416;-85
2023/06/19 10:40:32;;;;;;;15.25;12.43;;;;;;;;;;6191455;23;20024;-86
2023/06/19 10:42:58;;;;;;;18.40;13.60;;;;;;;;;;6190680;23;20028;-86
2023/06/19 10:45:28;;;;;;;19.60;13.75;;;;;;;;;;6160628;23;20324;-86
2023/06/19 10:47:55;;;;;;;17.13;13.52;;;;;;;;;;6185990;23;20313;-86
2023/06/19 10:50:21;;;;;;;16.75;12.35;;;;;;;;;;6184566;23;20017;-87
2023/06/19 10:52:48;;;;;;;19.65;13.35;;;;;;;;;;6160123;23;20021;-86
2023/06/19 10:55:15;;;;;;;18.40;14.07;;;;;;;;;;6161071;23;20017;-86
2023/06/19 10:57:44;;;;;;;24.35;14.65;;;;;;;;;;6161945;23;20112;-86
2023/06/19 11:00:14;;;;;;;20.90;14.43;;;;;;;;;;6211234;23;20119;-86
2023/06/19 11:02:43;;;;;;;21.55;14.15;;;;;;;;;;6187703;23;20104;-86
2023/06/19 11:05:13;;;;;;;20.35;14.85;;;;;;;;;;6187400;23;20020;-86
2023/06/19 11:07:39;;;;;;;19.23;14.32;;;;;;;;;;6211306;23;20119;-87
2023/06/19 11:10:06;;;;;;;20.02;15.25;;;;;;;;;;6160871;23;20067;-85
2023/06/19 11:12:34;;;;;;;21.00;16.05;;;;;;;;;;6210613;23;20021;-86
2023/06/19 11:15:03;;;;;;;22.92;16.00;;;;;;;;;;6188018;23;20024;-86
2023/06/19 11:17:29;;;;;;;21.60;15.50;;;;;;;;;;6210857;23;20017;-86
2023/06/19 11:19:57;;;;;;;19.92;15.60;;;;;;;;;;6186738;23;20023;-86
2023/06/19 11:22:34;;;;;;;20.85;15.65;;;;;;;;;;6210799;23;20035;-83
2023/06/19 11:25:03;;;;;;;25.25;18.23;;;;;;;;;;6188116;23;20048;-84
2023/06/19 11:27:30;;;;;;;21.45;17.45;;;;;;;;;;6210495;23;20017;-86
2023/06/19 11:29:58;;;;;;;23.83;17.77;;;;;;;;;;6186110;23;20040;-86
2023/06/19 11:32:27;;;;;;;21.15;16.13;;;;;;;;;;6187392;23;20040;-86
2023/06/19 11:34:54;;;;;;;20.80;15.63;;;;;;;;;;6209952;23;20013;-85
2023/06/19 11:37:21;;;;;;;17.77;14.30;;;;;;;;;;6160140;23;20024;-86
2023/06/19 11:39:47;;;;;;;20.17;15.05;;;;;;;;;;6186864;23;20047;-86
2023/06/19 11:42:14;;;;;;;16.67;13.60;;;;;;;;;;6209898;23;20021;-86
2023/06/19 11:44:59;;;;;;;13.93;11.32;;;;;;;;;;6192963;23;20053;-86
2023/06/19 11:47:26;;;;;;;15.90;12.10;;;;;;;;;;6194119;23;20021;-85
2023/06/19 11:49:52;;;;;;;14.02;11.60;;;;;;;;;;6212017;23;20021;-86
2023/06/19 11:52:19;;;;;;;16.65;12.98;;;;;;;;;;6210039;23;20021;-86
2023/06/19 11:54:45;;;;;;;13.85;11.80;;;;;;;;;;6186743;23;20456;-86
2023/06/19 11:57:11;;;;;;;13.48;10.32;;;;;;;;;;6210136;23;20021;-85
2023/06/19 11:59:39;;;;;;;16.25;11.68;;;;;;;;;;6186817;23;20021;-86
2023/06/19 12:02:05;;;;;;;13.82;10.82;;;;;;;;;;6186667;23;20052;-86
2023/06/19 12:04:31;;;;;;;15.13;11.73;;;;;;;;;;6209904;23;20048;-84
2023/06/19 12:06:58;;;;;;;14.88;11.13;;;;;;;;;;6160747;23;20027;-83
2023/06/19 12:09:27;;;;;;;12.73;10.40;;;;;;;;;;6160283;23;20332;-83
2023/06/19 12:11:53;;;;;;;12.77;10.35;;;;;;;;;;6190952;23;20017;-84
2023/06/19 12:14:20;;;;;;;11.02;9.68;;;;;;;;;;6214769;23;20020;-83
2023/06/19 12:16:47;;;;;;;11.23;9.32;;;;;;;;;;6160229;23;20352;-84
2023/06/19 12:19:13;;;;;;;10.70;9.48;;;;;;;;;;6159878;23;20147;-84
2023/06/19 12:21:39;;;;;;;11.38;9.25;;;;;;;;;;6161534;23;20444;-86
2023/06/19 12:24:05;;;;;;;11.90;9.52;;;;;;;;;;6161320;23;20013;-84
2023/06/19 12:26:36;;;;;;;10.77;8.77;;;;;;;;;;6160943;23;20021;-84
2023/06/19 12:29:11;;;;;;;10.23;8.55;;;;;;;;;;6211418;23;20017;-88
2023/06/19 12:31:46;;;;;;;8.65;7.47;;;;;;;;;;6188121;23;20509;-82
2023/06/19 12:34:12;;;;;;;10.75;7.68;;;;;;;;;;6187881;23;20115;-83
2023/06/19 12:36:38;;;;;;;11.25;7.68;;;;;;;;;;6160316;23;20013;-84
2023/06/19 12:39:06;;;;;;;8.40;6.97;;;;;;;;;;6159911;23;20012;-83
2023/06/19 12:41:32;;;;;;;11.15;7.72;;;;;;;;;;6210039;23;20091;-86
2023/06/19 12:43:58;;;;;;;10.95;7.28;;;;;;;;;;6158029;23;20020;-86
2023/06/19 12:46:24;;;;;;;10.98;6.68;;;;;;;;;;6184248;23;20060;-84
2023/06/19 12:48:50;;;;;;;8.70;7.10;;;;;;;;;;6160344;23;20017;-85
2023/06/19 12:51:17;;;;;;;9.68;8.10;;;;;;;;;;6209700;23;20337;-83
2023/06/19 12:53:44;;;;;;;10.80;7.20;;;;;;;;;;6184523;23;20017;-83
2023/06/19 12:56:10;;;;;;;9.68;7.10;;;;;;;;;;6184106;23;20025;-84
2023/06/19 12:58:36;;;;;;;8.85;7.13;;;;;;;;;;6208464;23;20028;-84
2023/06/19 13:01:02;;;;;;;9.43;6.30;;;;;;;;;;6160072;23;20013;-83
2023/06/19 13:03:28;;;;;;;8.32;7.10;;;;;;;;;;6158750;23;20059;-82
2023/06/19 13:05:54;;;;;;;9.43;6.05;;;;;;;;;;6183855;23;20021;-83
2023/06/19 13:08:20;;;;;;;8.10;7.28;;;;;;;;;;6208151;23;20427;-83
2023/06/19 13:10:46;;;;;;;9.07;6.53;;;;;;;;;;6209022;23;20451;-82
2023/06/19 13:13:13;;;;;;;10.23;7.43;;;;;;;;;;6160203;23;20320;-82
2023/06/19 13:15:39;;;;;;;8.48;7.63;;;;;;;;;;6184606;23;20017;-86
2023/06/19 13:18:06;;;;;;;9.60;7.57;;;;;;;;;;6132761;23;20021;-86
2023/06/19 13:20:34;;;;;;;9.85;7.85;;;;;;;;;;6162651;23;20058;-87
2023/06/19 13:23:00;;;;;;;10.50;8.32;;;;;;;;;;6160718;23;20460;-85
2023/06/19 13:25:30;;;;;;;9.45;8.48;;;;;;;;;;6188177;23;20025;-87
2023/06/19 13:27:56;;;;;;;9.63;8.63;;;;;;;;;;6162352;23;20021;-87
2023/06/19 13:30:22;;;;;;;10.18;9.07;;;;;;;;;;6159084;23;20399;-88
2023/06/19 13:32:48;;;;;;;11.13;9.35;;;;;;;;;;6207919;23;20013;-87
2023/06/19 13:35:14;;;;;;;9.43;8.15;;;;;;;;;;6183084;23;20037;-88
2023/06/19 13:37:40;;;;;;;10.27;8.10;;;;;;;;;;6157940;23;20407;-86
2023/06/19 13:40:07;;;;;;;11.63;8.32;;;;;;;;;;6158876;23;20459;-86
2023/06/19 13:42:35;;;;;;;10.18;7.82;;;;;;;;;;6164797;23;20017;-86
2023/06/19 13:45:02;;;;;;;7.63;6.18;;;;;;;;;;6167376;23;20020;-86
2023/06/19 13:47:28;;;;;;;8.13;7.00;;;;;;;;;;6161950;23;20092;-83
2023/06/19 13:49:54;;;;;;;9.00;7.32;;;;;;;;;;6196794;23;20021;-86
2023/06/19 13:52:20;;;;;;;8.82;7.22;;;;;;;;;;6201893;23;20024;-83
2023/06/19 13:54:47;;;;;;;10.35;7.75;;;;;;;;;;6223810;23;20443;-84
2023/06/19 13:57:13;;;;;;;10.07;6.60;;;;;;;;;;6185988;23;20444;-83
2023/06/19 13:59:39;;;;;;;11.48;7.70;;;;;;;;;;6184588;23;20306;-84
2023/06/19 14:02:05;;;;;;;11.55;7.40;;;;;;;;;;6183914;23;20088;-83
2023/06/19 14:04:31;;;;;;;10.07;7.00;;;;;;;;;;6183594;23;20344;-82
2023/06/19 14:06:58;;;;;;;8.48;7.50;;;;;;;;;;6158934;23;20102;-83
2023/06/19 14:09:24;;;;;;;8.50;6.90;;;;;;;;;;6186233;23;20013;-83
2023/06/19 14:11:50;;;;;;;8.20;6.80;;;;;;;;;;6209195;23;20076;-84
2023/06/19 14:14:16;;;;;;;7.88;6.45;;;;;;;;;;6183790;23;20017;-83
2023/06/19 14:16:42;;;;;;;8.32;7.13;;;;;;;;;;6208808;23;20017;-83
2023/06/19 14:19:08;;;;;;;8.05;6.82;;;;;;;;;;6184419;23;20013;-83
2023/06/19 14:21:34;;;;;;;7.65;6.32;;;;;;;;;;6209125;23;20461;-82
2023/06/19 14:24:00;;;;;;;11.68;7.40;;;;;;;;;;6208986;23;20017;-82
2023/06/19 14:26:26;;;;;;;8.18;6.88;;;;;;;;;;6184357;23;20189;-83